Time;durP1;ratioP1;P1;durP2;ratioP2;P2;SDS_P1;SDS_P2;PMS_P1;PMS_P2;Temp;Humidity;BMP_temperature;BMP_pressure;BME280_temperature;BME280_humidity;BME280_pressure;Samples;Min_cycle;Max_cycle;Signal;HPM_P1;HPM_P2
2024/03/14 00:00:34;;;;;;;30.33;20.38;;;;;;;-146.25;100.00;52532.44;2089390;28;20870;-66
2024/03/14 00:01:40;;;;;;;29.00;21.00;;;;;;;-146.25;100.00;52558.78;2088275;28;30973;-66
2024/03/14 00:02:44;;;;;;;30.25;20.92;;;;;;;-146.25;100.00;52552.72;2089308;28;31948;-66
2024/03/14 00:03:45;;;;;;;29.65;21.50;;;;;;;-146.25;100.00;52591.25;2088215;28;35074;-66
2024/03/14 00:04:47;;;;;;;29.70;21.40;;;;;;;-146.25;100.00;52542.56;2088055;28;34769;-65
2024/03/14 00:05:49;;;;;;;32.40;22.17;;;;;;;-146.25;100.00;52583.13;2088223;28;31245;-66
2024/03/14 00:06:51;;;;;;;27.05;20.20;;;;;;;-146.25;100.00;52570.97;2088474;28;36385;-66
2024/03/14 00:07:57;;;;;;;27.77;20.13;;;;;;;-146.25;100.00;52591.25;2088312;28;34931;-66
2024/03/14 00:09:00;;;;;;;28.42;20.50;;;;;;;-146.25;100.00;52587.19;2087994;28;33283;-66
2024/03/14 00:10:06;;;;;;;28.02;18.65;;;;;;;-146.25;100.00;52564.88;2087848;28;20037;-66
2024/03/14 00:11:08;;;;;;;29.77;20.92;;;;;;;-146.25;100.00;52577.03;2088928;28;20089;-66
2024/03/14 00:12:10;;;;;;;30.25;20.85;;;;;;;-146.25;100.00;52573.00;2088187;28;36141;-67
2024/03/14 00:13:12;;;;;;;26.58;20.13;;;;;;;-146.25;100.00;52573.00;2088731;28;31754;-66
2024/03/14 00:14:13;;;;;;;22.45;18.33;;;;;;;-146.25;100.00;52575.00;2087880;28;35243;-66
2024/03/14 00:15:15;;;;;;;26.95;19.95;;;;;;;-146.25;100.00;52583.13;2088591;28;32975;-66
2024/03/14 00:16:18;;;;;;;26.17;19.15;;;;;;;-146.25;100.00;52601.38;2087850;28;32384;-66
2024/03/14 00:17:19;;;;;;;24.80;19.67;;;;;;;-146.25;100.00;52568.94;2088834;28;35779;-65
2024/03/14 00:18:24;;;;;;;24.02;17.83;;;;;;;-146.25;100.00;52623.69;2079039;28;34377;-66
2024/03/14 00:19:26;;;;;;;26.35;19.27;;;;;;;-146.25;100.00;52568.94;2080267;28;30805;-66
2024/03/14 00:20:29;;;;;;;24.20;17.80;;;;;;;-146.25;100.00;52579.06;2081336;28;36691;-66
2024/03/14 00:21:31;;;;;;;24.88;18.48;;;;;;;-146.25;100.00;52544.59;2080513;28;31229;-65
2024/03/14 00:22:34;;;;;;;22.35;17.08;;;;;;;-146.25;100.00;52538.53;2079444;28;37425;-65
2024/03/14 00:23:38;;;;;;;22.40;17.60;;;;;;;-146.25;100.00;52570.97;2080380;28;29758;-65
2024/03/14 00:24:43;;;;;;;24.75;18.42;;;;;;;-146.25;100.00;52583.13;2080320;28;35004;-65
2024/03/14 00:25:45;;;;;;;24.48;18.67;;;;;;;-146.25;100.00;52575.00;2079692;28;35376;-66
2024/03/14 00:26:46;;;;;;;22.25;17.15;;;;;;;-146.25;100.00;52560.81;2080050;28;34817;-66
2024/03/14 00:27:48;;;;;;;23.17;16.45;;;;;;;-146.25;100.00;52577.03;2080033;28;34972;-67
2024/03/14 00:28:52;;;;;;;22.13;16.17;;;;;;;-146.25;100.00;52570.97;2079986;28;34514;-66
2024/03/14 00:29:56;;;;;;;21.60;16.40;;;;;;;-146.25;100.00;52579.06;2080136;28;31564;-66
2024/03/14 00:30:59;;;;;;;20.35;16.35;;;;;;;-146.25;100.00;52560.81;2071407;28;20805;-66
2024/03/14 00:32:04;;;;;;;20.67;16.27;;;;;;;-146.25;100.00;52591.25;2071727;28;34173;-66
2024/03/14 00:33:06;;;;;;;19.30;16.08;;;;;;;-146.25;100.00;52577.03;2079931;28;31325;-66
2024/03/14 00:34:08;;;;;;;18.70;15.40;;;;;;;-146.25;100.00;52573.00;2071130;28;34268;-66
2024/03/14 00:35:12;;;;;;;19.83;15.25;;;;;;;-146.25;100.00;52611.50;2070917;28;29581;-66
2024/03/14 00:36:14;;;;;;;21.42;16.00;;;;;;;-146.25;100.00;52570.97;2070633;28;37005;-66
2024/03/14 00:37:16;;;;;;;21.15;14.85;;;;;;;-146.25;100.00;52558.78;2071726;28;34671;-66
2024/03/14 00:38:19;;;;;;;18.70;14.80;;;;;;;-146.25;100.00;52585.16;2079996;28;32946;-66
2024/03/14 00:39:23;;;;;;;18.25;14.00;;;;;;;-146.25;100.00;52587.19;2079799;28;33638;-66
2024/03/14 00:40:25;;;;;;;16.52;14.13;;;;;;;-146.25;100.00;52564.88;2080074;28;33303;-66
2024/03/14 00:41:27;;;;;;;17.77;14.23;;;;;;;-146.25;100.00;52524.31;2079703;28;34013;-66
2024/03/14 00:42:29;;;;;;;18.33;15.23;;;;;;;-146.25;100.00;52579.06;2080154;28;36336;-66
2024/03/14 00:43:32;;;;;;;16.38;14.00;;;;;;;-146.25;100.00;52548.66;2079864;28;34291;-66
2024/03/14 00:44:37;;;;;;;16.35;13.25;;;;;;;-146.25;100.00;52562.84;2079760;28;33995;-66
2024/03/14 00:45:39;;;;;;;17.17;13.35;;;;;;;-146.25;100.00;52587.19;2079742;28;33554;-66
2024/03/14 00:46:43;;;;;;;16.40;12.80;;;;;;;-146.25;100.00;52564.88;2080637;28;28170;-66
2024/03/14 00:47:45;;;;;;;15.60;12.88;;;;;;;-146.25;100.00;52562.84;2080057;28;26701;-65
2024/03/14 00:48:47;;;;;;;17.08;12.45;;;;;;;-146.25;100.00;52583.13;2080036;28;32963;-65
2024/03/14 00:49:50;;;;;;;14.63;11.68;;;;;;;-146.25;100.00;52532.44;2079576;28;23472;-65
2024/03/14 00:50:52;;;;;;;16.02;11.77;;;;;;;-146.25;100.00;52564.88;2079846;28;36372;-66
2024/03/14 00:51:55;;;;;;;14.55;11.82;;;;;;;-146.25;100.00;52530.41;2079559;28;33850;-66
2024/03/14 00:52:57;;;;;;;15.00;11.07;;;;;;;-146.25;100.00;52562.84;2080262;28;27450;-64
2024/03/14 00:54:01;;;;;;;12.95;11.50;;;;;;;-146.25;100.00;52599.34;2079518;28;33672;-63
2024/03/14 00:55:08;;;;;;;13.35;10.98;;;;;;;-146.25;100.00;52558.78;2070277;28;33397;-66
2024/03/14 00:56:11;;;;;;;12.65;11.35;;;;;;;-146.25;100.00;52566.91;2071248;28;32445;-66
2024/03/14 00:57:13;;;;;;;13.43;11.35;;;;;;;-146.25;100.00;52579.06;2071683;28;35413;-66
2024/03/14 00:58:15;;;;;;;13.82;11.20;;;;;;;-146.25;100.00;52579.06;2080232;28;20038;-65
2024/03/14 00:59:17;;;;;;;12.43;10.90;;;;;;;-146.25;100.00;52534.47;2080539;28;20977;-65
2024/03/14 01:00:23;;;;;;;13.48;10.98;;;;;;;-146.25;100.00;52550.69;2079614;28;35301;-65
2024/03/14 01:01:25;;;;;;;11.45;10.27;;;;;;;-146.25;100.00;52568.94;2080037;28;34041;-65
2024/03/14 01:02:27;;;;;;;11.80;10.18;;;;;;;-146.25;100.00;52554.75;2079854;28;35628;-66
2024/03/14 01:03:32;;;;;;;12.25;10.70;;;;;;;-146.25;100.00;52558.78;2079892;28;30494;-65
2024/03/14 01:04:33;;;;;;;13.98;10.43;;;;;;;-146.25;100.00;52573.00;2078946;28;34830;-66
2024/03/14 01:05:37;;;;;;;13.77;10.52;;;;;;;-146.25;100.00;52548.66;2079064;28;28437;-65
2024/03/14 01:06:39;;;;;;;14.02;10.73;;;;;;;-146.25;100.00;52546.63;2079544;28;34507;-66
2024/03/14 01:07:41;;;;;;;12.52;10.27;;;;;;;-146.25;100.00;52558.78;2071033;28;36198;-65
2024/03/14 01:08:43;;;;;;;12.55;10.52;;;;;;;-146.25;100.00;52534.47;2070934;28;34577;-66
2024/03/14 01:09:45;;;;;;;12.73;9.57;;;;;;;-146.25;100.00;52568.94;2080273;28;34125;-66
2024/03/14 01:10:47;;;;;;;11.55;9.73;;;;;;;-146.25;100.00;52570.97;2079673;28;33131;-65
2024/03/14 01:11:50;;;;;;;11.50;10.23;;;;;;;-146.25;100.00;52558.78;2071180;28;35915;-65
2024/03/14 01:12:51;;;;;;;11.18;9.95;;;;;;;-146.25;100.00;52587.19;2071155;28;34410;-66
2024/03/14 01:13:53;;;;;;;13.40;10.23;;;;;;;-146.25;100.00;52566.91;2079603;28;36150;-66
2024/03/14 01:14:55;;;;;;;10.98;9.15;;;;;;;-146.25;100.00;52554.75;2079518;28;34043;-66
2024/03/14 01:15:59;;;;;;;11.30;10.18;;;;;;;-146.25;100.00;52548.66;2079836;28;31000;-66
2024/03/14 01:17:02;;;;;;;12.05;9.73;;;;;;;-146.25;100.00;52562.84;2079727;28;32779;-65
2024/03/14 01:18:05;;;;;;;10.63;9.52;;;;;;;-146.25;100.00;52593.25;2080254;28;20873;-65
2024/03/14 01:19:07;;;;;;;14.75;9.70;;;;;;;-146.25;100.00;52585.16;2079552;28;36309;-65
2024/03/14 01:20:16;;;;;;;11.70;9.95;;;;;;;-146.25;100.00;52595.28;2079391;28;34136;-64
2024/03/14 01:21:19;;;;;;;12.60;10.13;;;;;;;-146.25;100.00;52599.34;2071477;28;23851;-66
2024/03/14 01:22:21;;;;;;;10.73;9.15;;;;;;;-146.25;100.00;52542.56;2072737;28;20124;-65
2024/03/14 01:23:24;;;;;;;10.45;9.35;;;;;;;-146.25;100.00;52583.13;2079384;28;33775;-67
2024/03/14 01:24:29;;;;;;;11.02;9.82;;;;;;;-146.25;100.00;52601.38;2070793;28;38404;-65
2024/03/14 01:25:30;;;;;;;11.55;9.45;;;;;;;-146.25;100.00;52611.50;2071356;28;34195;-64
2024/03/14 01:26:35;;;;;;;12.75;9.43;;;;;;;-146.25;100.00;52550.69;2080240;28;20054;-64
2024/03/14 01:27:36;;;;;;;13.55;9.82;;;;;;;-146.25;100.00;52560.81;2079780;28;35620;-65
2024/03/14 01:28:38;;;;;;;12.98;10.05;;;;;;;-146.25;100.00;52566.91;2079811;28;31215;-64
2024/03/14 01:29:40;;;;;;;12.43;9.82;;;;;;;-146.25;100.00;52558.78;2079545;28;32570;-65
2024/03/14 01:30:42;;;;;;;10.55;9.45;;;;;;;-146.25;100.00;52568.94;2079639;28;35206;-66
2024/03/14 01:31:47;;;;;;;12.15;10.50;;;;;;;-146.25;100.00;52605.44;2080612;28;20033;-66
2024/03/14 01:32:49;;;;;;;11.48;10.05;;;;;;;-146.25;100.00;52560.81;2079318;28;33654;-64
2024/03/14 01:33:51;;;;;;;12.57;9.70;;;;;;;-146.25;100.00;52562.84;2079683;28;33755;-66
2024/03/14 01:34:53;;;;;;;14.82;9.93;;;;;;;-146.25;100.00;52570.97;2079485;28;33174;-64
2024/03/14 01:35:58;;;;;;;11.57;9.90;;;;;;;-146.25;100.00;52581.09;2079439;28;37699;-66
2024/03/14 01:37:06;;;;;;;12.55;9.98;;;;;;;-146.25;100.00;52550.69;2080326;28;20046;-64
2024/03/14 01:38:08;;;;;;;11.82;10.10;;;;;;;-146.25;100.00;52593.25;2070494;28;36974;-65
2024/03/14 01:39:10;;;;;;;12.23;10.38;;;;;;;-146.25;100.00;52562.84;2071547;28;30419;-65
2024/03/14 01:40:12;;;;;;;13.75;9.90;;;;;;;-146.25;100.00;52544.59;2079516;28;35953;-64
2024/03/14 01:41:19;;;;;;;11.77;10.25;;;;;;;-146.25;100.00;52589.22;2079150;28;38367;-65
2024/03/14 01:42:21;;;;;;;11.23;9.20;;;;;;;-146.25;100.00;52597.31;2080207;28;20049;-65
2024/03/14 01:43:23;;;;;;;13.52;10.20;;;;;;;-146.25;100.00;52540.53;2079445;28;32731;-65
2024/03/14 01:44:41;;;;;;;10.82;9.73;;;;;;;-146.25;100.00;52593.25;2079399;28;33013;-64
2024/03/14 01:45:43;;;;;;;11.98;10.63;;;;;;;-146.25;100.00;52548.66;2070726;28;34571;-66
2024/03/14 01:46:44;;;;;;;11.60;10.13;;;;;;;-146.25;100.00;52558.78;2072394;28;38537;-66
2024/03/14 01:47:47;;;;;;;11.65;10.40;;;;;;;-146.25;100.00;52570.97;2079722;28;29707;-66
2024/03/14 01:48:49;;;;;;;14.90;10.38;;;;;;;-146.25;100.00;52530.41;2079418;28;37454;-64
2024/03/14 01:49:52;;;;;;;11.00;9.82;;;;;;;-146.25;100.00;52540.53;2079343;28;35360;-66
2024/03/14 01:50:54;;;;;;;10.73;9.23;;;;;;;-146.25;100.00;52566.91;2070678;28;34741;-66
2024/03/14 01:51:56;;;;;;;12.43;10.40;;;;;;;-146.25;100.00;52546.63;2070597;28;35261;-67
2024/03/14 01:52:59;;;;;;;11.98;10.07;;;;;;;-146.25;100.00;52556.75;2079883;28;34948;-64
2024/03/14 01:54:00;;;;;;;11.90;10.43;;;;;;;-146.25;100.00;52570.97;2079783;28;34088;-65
2024/03/14 01:55:04;;;;;;;12.02;9.80;;;;;;;-146.25;100.00;52568.94;2079370;28;36262;-64
2024/03/14 01:56:07;;;;;;;12.32;10.27;;;;;;;-146.25;100.00;52593.25;2079861;28;27345;-65
2024/03/14 01:57:09;;;;;;;11.32;10.10;;;;;;;-146.25;100.00;52570.97;2071024;28;20967;-66
2024/03/14 01:58:15;;;;;;;11.23;10.05;;;;;;;-146.25;100.00;52575.00;2070766;28;30567;-66
2024/03/14 01:59:17;;;;;;;11.77;9.82;;;;;;;-146.25;100.00;52562.84;2071450;28;20074;-65
2024/03/14 02:00:29;;;;;;;11.05;9.85;;;;;;;-146.25;100.00;52564.88;2071294;28;27800;-67
2024/03/14 02:01:31;;;;;;;12.35;10.50;;;;;;;-146.25;100.00;52587.19;2079331;28;33886;-66
2024/03/14 02:02:35;;;;;;;14.05;10.43;;;;;;;-146.25;100.00;52585.16;2078773;28;34783;-66
2024/03/14 02:03:37;;;;;;;13.63;9.75;;;;;;;-146.25;100.00;52558.78;2079612;28;35105;-66
2024/03/14 02:04:52;;;;;;;13.13;10.85;;;;;;;-146.25;100.00;52548.66;2079431;28;32546;-66
2024/03/14 02:06:24;;;;;;;11.20;9.88;;;;;;;-146.25;100.00;52595.28;2070615;28;36495;-66
2024/03/14 02:07:35;;;;;;;11.07;9.80;;;;;;;-146.25;100.00;52570.97;2068390;28;33614;-66
2024/03/14 02:08:37;;;;;;;11.60;10.02;;;;;;;-146.25;100.00;52595.28;2076246;28;36259;-66
2024/03/14 02:09:41;;;;;;;11.45;10.25;;;;;;;-146.25;100.00;52514.19;2071553;28;20116;-66
2024/03/14 02:10:43;;;;;;;11.60;10.35;;;;;;;-146.25;100.00;52566.91;2062751;28;38069;-66
2024/03/14 02:11:45;;;;;;;12.60;10.23;;;;;;;-146.25;100.00;52560.81;2071278;28;37385;-66
2024/03/14 02:12:47;;;;;;;13.80;10.68;;;;;;;-146.25;100.00;52564.88;2079659;28;27233;-66
2024/03/14 02:13:49;;;;;;;11.95;10.10;;;;;;;-146.25;100.00;52564.88;2079403;28;35884;-66
2024/03/14 02:14:50;;;;;;;13.10;10.60;;;;;;;-146.25;100.00;52587.19;2079974;28;20042;-66
2024/03/14 02:15:55;;;;;;;12.57;10.32;;;;;;;-146.25;100.00;52558.78;2079650;28;35247;-66
2024/03/14 02:16:57;;;;;;;13.15;9.82;;;;;;;-146.25;100.00;52573.00;2080381;28;36651;-65
2024/03/14 02:18:01;;;;;;;13.73;10.73;;;;;;;-146.25;100.00;52579.06;2081035;28;34752;-66
2024/03/14 02:19:03;;;;;;;12.05;10.32;;;;;;;-146.25;100.00;52601.38;2080462;28;35987;-66
2024/03/14 02:20:06;;;;;;;11.40;9.57;;;;;;;-146.25;100.00;52583.13;2080899;28;35801;-66
2024/03/14 02:21:08;;;;;;;11.35;9.80;;;;;;;-146.25;100.00;52554.75;2080568;28;34547;-66
2024/03/14 02:22:20;;;;;;;13.43;9.63;;;;;;;-146.25;100.00;52566.91;2080814;28;35217;-66
2024/03/14 02:23:22;;;;;;;11.07;9.82;;;;;;;-146.25;100.00;52568.94;2080814;28;35494;-66
2024/03/14 02:24:25;;;;;;;11.93;10.20;;;;;;;-146.25;100.00;52526.34;2080904;28;33224;-66
2024/03/14 02:25:27;;;;;;;12.25;9.98;;;;;;;-146.25;100.00;52570.97;2080533;28;35532;-65
2024/03/14 02:26:29;;;;;;;11.85;10.57;;;;;;;-146.25;100.00;52575.00;2080871;28;35761;-66
2024/03/14 02:27:34;;;;;;;12.45;10.10;;;;;;;-146.25;100.00;52599.34;2080731;28;35564;-66
2024/03/14 02:28:37;;;;;;;11.90;9.98;;;;;;;-146.25;100.00;52575.00;2080866;28;36978;-66
2024/03/14 02:29:40;;;;;;;12.60;10.00;;;;;;;-146.25;100.00;52579.06;2080348;28;35518;-66
2024/03/14 02:30:44;;;;;;;11.75;10.00;;;;;;;-146.25;100.00;52587.19;2081244;28;20046;-66
2024/03/14 02:31:51;;;;;;;12.85;10.27;;;;;;;-146.25;100.00;52562.84;2081457;28;20088;-66
2024/03/14 02:32:53;;;;;;;14.50;10.48;;;;;;;-146.25;100.00;52607.47;2081045;28;35429;-66
2024/03/14 02:33:54;;;;;;;13.90;10.13;;;;;;;-146.25;100.00;52581.09;2080920;28;29280;-66
2024/03/14 02:34:56;;;;;;;14.52;10.00;;;;;;;-146.25;100.00;52542.56;2080935;28;34070;-66
2024/03/14 02:35:58;;;;;;;12.93;9.82;;;;;;;-146.25;100.00;52566.91;2071550;28;34969;-66
2024/03/14 02:37:00;;;;;;;11.77;9.98;;;;;;;-146.25;100.00;52562.84;2073194;28;20043;-66
2024/03/14 02:38:01;;;;;;;12.57;10.57;;;;;;;-146.25;100.00;52601.38;2080591;28;37220;-66
2024/03/14 02:39:05;;;;;;;12.65;10.73;;;;;;;-146.25;100.00;52573.00;2081031;28;33665;-66
2024/03/14 02:40:11;;;;;;;11.68;9.75;;;;;;;-146.25;100.00;52550.69;2080126;28;33557;-67
2024/03/14 02:41:13;;;;;;;11.73;9.90;;;;;;;-146.25;100.00;52570.97;2080782;28;37845;-66
2024/03/14 02:42:15;;;;;;;12.70;9.98;;;;;;;-146.25;100.00;52577.03;2081050;28;20060;-66
2024/03/14 02:43:17;;;;;;;11.63;9.25;;;;;;;-146.25;100.00;52581.09;2080887;28;33069;-66
2024/03/14 02:44:21;;;;;;;11.50;9.77;;;;;;;-146.25;100.00;52566.91;2080284;28;37354;-65
2024/03/14 02:45:24;;;;;;;11.30;10.10;;;;;;;-146.25;100.00;52536.50;2072002;28;33801;-66
2024/03/14 02:46:26;;;;;;;13.63;10.20;;;;;;;-146.25;100.00;52558.78;2072451;28;37629;-66
2024/03/14 02:47:28;;;;;;;12.50;9.98;;;;;;;-146.25;100.00;52587.19;2081482;28;20117;-66
2024/03/14 02:48:30;;;;;;;13.65;10.60;;;;;;;-146.25;100.00;52573.00;2080359;28;36699;-66
2024/03/14 02:49:32;;;;;;;12.70;10.45;;;;;;;-146.25;100.00;52583.13;2080614;28;39832;-66
2024/03/14 02:50:34;;;;;;;12.70;10.15;;;;;;;-146.25;100.00;52550.69;2080407;28;28779;-66
2024/03/14 02:51:39;;;;;;;11.90;10.18;;;;;;;-146.25;100.00;52548.66;2080776;28;30852;-66
2024/03/14 02:52:41;;;;;;;13.18;9.48;;;;;;;-146.25;100.00;52607.47;2072037;28;32270;-66
2024/03/14 02:53:43;;;;;;;12.32;10.63;;;;;;;-146.25;100.00;52550.69;2072726;28;36505;-65
2024/03/14 02:54:45;;;;;;;11.50;9.73;;;;;;;-146.25;100.00;52558.78;2080129;28;39278;-67
2024/03/14 02:55:49;;;;;;;12.35;10.38;;;;;;;-146.25;100.00;52591.25;2080686;28;34155;-66
2024/03/14 02:56:53;;;;;;;11.43;9.65;;;;;;;-146.25;100.00;52564.88;2080451;28;37132;-66
2024/03/14 02:57:55;;;;;;;13.60;10.95;;;;;;;-146.25;100.00;52595.28;2080583;28;33295;-67
2024/03/14 02:58:56;;;;;;;13.07;9.73;;;;;;;-146.25;100.00;52556.75;2080534;28;36150;-66
2024/03/14 02:59:58;;;;;;;11.38;10.18;;;;;;;-146.25;100.00;52570.97;2081050;28;20038;-65
2024/03/14 03:01:03;;;;;;;12.00;10.20;;;;;;;-146.25;100.00;52566.91;2080044;28;34462;-65
2024/03/14 03:02:10;;;;;;;13.05;10.52;;;;;;;-146.25;100.00;52583.13;2080305;28;34737;-64
2024/03/14 03:03:12;;;;;;;12.35;9.80;;;;;;;-146.25;100.00;52615.56;2080048;28;32837;-64
2024/03/14 03:04:14;;;;;;;12.07;10.27;;;;;;;-146.25;100.00;52577.03;2080705;28;35375;-64
2024/03/14 03:05:16;;;;;;;11.63;9.68;;;;;;;-146.25;100.00;52554.75;2080714;28;21642;-67
2024/03/14 03:06:18;;;;;;;11.43;9.90;;;;;;;-146.25;100.00;52591.25;2080952;28;31456;-66
2024/03/14 03:07:20;;;;;;;11.77;10.55;;;;;;;-146.25;100.00;52585.16;2080373;28;33379;-64
2024/03/14 03:08:22;;;;;;;13.80;10.73;;;;;;;-146.25;100.00;52570.97;2080765;28;33199;-63
2024/03/14 03:09:26;;;;;;;12.00;9.23;;;;;;;-146.25;100.00;52583.13;2080296;28;33914;-64
2024/03/14 03:10:28;;;;;;;12.38;10.48;;;;;;;-146.25;100.00;52546.63;2080532;28;20034;-64
2024/03/14 03:11:33;;;;;;;14.85;10.50;;;;;;;-146.25;100.00;52609.50;2079370;28;35174;-64
2024/03/14 03:12:39;;;;;;;12.05;10.60;;;;;;;-146.25;100.00;52568.94;2080233;28;35843;-64
2024/03/14 03:13:41;;;;;;;14.38;9.85;;;;;;;-146.25;100.00;52534.47;2080327;28;34796;-65
2024/03/14 03:14:43;;;;;;;12.05;9.85;;;;;;;-146.25;100.00;52575.00;2080187;28;35808;-66
2024/03/14 03:15:47;;;;;;;11.77;10.50;;;;;;;-146.25;100.00;52554.75;2080864;28;20160;-64
2024/03/14 03:16:49;;;;;;;11.88;10.00;;;;;;;-146.25;100.00;52526.34;2080531;28;39120;-65
2024/03/14 03:17:53;;;;;;;11.98;10.52;;;;;;;-146.25;100.00;52573.00;2081064;28;20038;-64
2024/03/14 03:18:55;;;;;;;14.57;10.88;;;;;;;-146.25;100.00;52585.16;2080646;28;35034;-65
2024/03/14 03:20:04;;;;;;;12.07;10.80;;;;;;;-146.25;100.00;52579.06;2080849;28;20042;-64
2024/03/14 03:21:05;;;;;;;14.18;9.55;;;;;;;-146.25;100.00;52550.69;2079744;28;35226;-64
2024/03/14 03:22:07;;;;;;;12.68;10.32;;;;;;;-146.25;100.00;52573.00;2080551;28;35816;-65
2024/03/14 03:23:09;;;;;;;11.98;10.68;;;;;;;-146.25;100.00;52564.88;2080551;28;32865;-64
2024/03/14 03:24:12;;;;;;;14.45;10.30;;;;;;;-146.25;100.00;52570.97;2080285;28;35855;-65
2024/03/14 03:25:14;;;;;;;14.45;10.45;;;;;;;-146.25;100.00;52599.34;2081236;28;20049;-65
2024/03/14 03:26:16;;;;;;;11.70;10.50;;;;;;;-146.25;100.00;52593.25;2080330;28;38114;-64
2024/03/14 03:27:18;;;;;;;12.93;10.57;;;;;;;-146.25;100.00;52581.09;2071619;28;33964;-65
2024/03/14 03:28:19;;;;;;;14.30;11.00;;;;;;;-146.25;100.00;52615.56;2070866;28;34027;-65
2024/03/14 03:29:21;;;;;;;14.23;10.88;;;;;;;-146.25;100.00;52566.91;2080375;28;37090;-63
2024/03/14 03:30:24;;;;;;;14.20;10.88;;;;;;;-146.25;100.00;52583.13;2081068;28;20046;-65
2024/03/14 03:31:25;;;;;;;13.23;10.90;;;;;;;-146.25;100.00;52603.41;2080447;28;34134;-65
2024/03/14 03:32:27;;;;;;;12.27;10.95;;;;;;;-146.25;100.00;52585.16;2080391;28;36527;-65
2024/03/14 03:33:29;;;;;;;13.35;10.75;;;;;;;-146.25;100.00;52566.91;2081173;28;20030;-65
2024/03/14 03:34:32;;;;;;;12.98;11.20;;;;;;;-146.25;100.00;52570.97;2079518;28;35629;-65
2024/03/14 03:35:34;;;;;;;14.00;10.48;;;;;;;-146.25;100.00;52575.00;2079825;28;32309;-64
2024/03/14 03:36:36;;;;;;;13.13;10.60;;;;;;;-146.25;100.00;52615.56;2080458;28;32623;-65
2024/03/14 03:37:38;;;;;;;11.65;10.23;;;;;;;-146.25;100.00;52579.06;2080397;28;39549;-64
2024/03/14 03:38:42;;;;;;;12.70;9.93;;;;;;;-146.25;100.00;52552.72;2080231;28;35589;-64
2024/03/14 03:39:47;;;;;;;12.10;10.48;;;;;;;-146.25;100.00;52554.75;2080151;28;35159;-65
2024/03/14 03:40:49;;;;;;;14.45;11.05;;;;;;;-146.25;100.00;52591.25;2080156;28;36779;-65
2024/03/14 03:41:52;;;;;;;14.10;10.88;;;;;;;-146.25;100.00;52591.25;2071471;28;35183;-64
2024/03/14 03:42:55;;;;;;;12.77;10.82;;;;;;;-146.25;100.00;52554.75;2071969;28;20931;-64
2024/03/14 03:43:57;;;;;;;15.85;11.13;;;;;;;-146.25;100.00;52560.81;2072718;28;20038;-65
2024/03/14 03:44:59;;;;;;;13.02;10.70;;;;;;;-146.25;100.00;52556.75;2079316;28;32448;-65
2024/03/14 03:46:01;;;;;;;12.40;10.38;;;;;;;-146.25;100.00;52603.41;2080521;28;33962;-65
2024/03/14 03:47:03;;;;;;;11.82;10.35;;;;;;;-146.25;100.00;52570.97;2071771;28;36695;-65
2024/03/14 03:48:05;;;;;;;12.90;10.10;;;;;;;-146.25;100.00;52615.56;2071807;28;33463;-64
2024/03/14 03:49:07;;;;;;;12.57;10.88;;;;;;;-146.25;100.00;52562.84;2080301;28;35490;-64
2024/03/14 03:50:09;;;;;;;13.60;10.60;;;;;;;-146.25;100.00;52536.50;2080193;28;33190;-64
2024/03/14 03:51:13;;;;;;;13.07;10.35;;;;;;;-146.25;100.00;52585.16;2079986;28;37634;-65
2024/03/14 03:52:17;;;;;;;15.23;11.35;;;;;;;-146.25;100.00;52585.16;2071178;28;36623;-64
2024/03/14 03:53:19;;;;;;;12.75;10.15;;;;;;;-146.25;100.00;52554.75;2071735;28;34053;-65
2024/03/14 03:54:20;;;;;;;14.00;10.68;;;;;;;-146.25;100.00;52587.19;2080041;28;37069;-64
2024/03/14 03:55:22;;;;;;;13.75;10.75;;;;;;;-146.25;100.00;52583.13;2079426;28;30669;-65
2024/03/14 03:56:24;;;;;;;13.95;11.18;;;;;;;-146.25;100.00;52566.91;2078929;28;37010;-65
2024/03/14 03:57:29;;;;;;;15.02;10.68;;;;;;;-146.25;100.00;52599.34;2079691;28;35185;-65
2024/03/14 03:58:35;;;;;;;12.93;10.20;;;;;;;-146.25;100.00;52587.19;2080372;28;29398;-65
2024/03/14 03:59:37;;;;;;;14.27;9.95;;;;;;;-146.25;100.00;52591.25;2080140;28;33039;-64
2024/03/14 04:00:43;;;;;;;12.10;10.52;;;;;;;-146.25;100.00;52554.75;2080057;28;32579;-65
2024/03/14 04:01:46;;;;;;;13.38;10.45;;;;;;;-146.25;100.00;52583.13;2079726;28;37507;-65
2024/03/14 04:02:48;;;;;;;12.63;10.35;;;;;;;-146.25;100.00;52623.69;2072376;28;20042;-65
2024/03/14 04:03:51;;;;;;;13.90;10.32;;;;;;;-146.25;100.00;52570.97;2071598;28;36209;-66
2024/03/14 04:04:57;;;;;;;14.52;11.32;;;;;;;-146.25;100.00;52575.00;2080077;28;34465;-65
2024/03/14 04:05:59;;;;;;;14.25;10.60;;;;;;;-146.25;100.00;52605.44;2079908;28;34121;-66
2024/03/14 04:07:03;;;;;;;13.10;10.70;;;;;;;-146.25;100.00;52575.00;2071324;28;37274;-66
2024/03/14 04:08:07;;;;;;;12.90;10.35;;;;;;;-146.25;100.00;52554.75;2072396;28;20039;-66
2024/03/14 04:09:15;;;;;;;14.00;11.32;;;;;;;-146.25;100.00;52621.66;2071485;28;37702;-66
2024/03/14 04:10:17;;;;;;;11.15;9.98;;;;;;;-146.25;100.00;52591.25;2072730;28;34999;-66
2024/03/14 04:11:18;;;;;;;14.15;10.45;;;;;;;-146.25;100.00;52568.94;2080941;28;20030;-65
2024/03/14 04:12:20;;;;;;;16.63;10.85;;;;;;;-146.25;100.00;52593.25;2080017;28;36602;-65
2024/03/14 04:13:23;;;;;;;14.65;10.05;;;;;;;-146.25;100.00;52570.97;2080102;28;36627;-66
2024/03/14 04:14:24;;;;;;;13.27;10.15;;;;;;;-146.25;100.00;52593.25;2080820;28;20840;-66
2024/03/14 04:15:30;;;;;;;11.40;10.13;;;;;;;-146.25;100.00;52568.94;2080100;28;36012;-66
2024/03/14 04:16:33;;;;;;;13.38;10.80;;;;;;;-146.25;100.00;52568.94;2080550;28;34742;-65
2024/03/14 04:17:37;;;;;;;13.55;10.40;;;;;;;-146.25;100.00;52589.22;2080080;28;20198;-64
2024/03/14 04:18:39;;;;;;;12.30;9.85;;;;;;;-146.25;100.00;52566.91;2079400;28;35797;-65
2024/03/14 04:19:41;;;;;;;13.73;9.90;;;;;;;-146.25;100.00;52593.25;2079860;28;34032;-65
2024/03/14 04:20:43;;;;;;;12.70;10.30;;;;;;;-146.25;100.00;52577.03;2080379;28;20982;-66
2024/03/14 04:21:48;;;;;;;13.32;9.98;;;;;;;-146.25;100.00;52599.34;2079789;28;35958;-64
2024/03/14 04:22:53;;;;;;;13.38;10.38;;;;;;;-146.25;100.00;52566.91;2063713;28;20046;-66
2024/03/14 04:23:57;;;;;;;13.32;10.23;;;;;;;-146.25;100.00;52554.75;2063992;28;34820;-65
2024/03/14 04:24:59;;;;;;;13.45;10.05;;;;;;;-146.25;100.00;52575.00;2080106;28;23292;-65
2024/03/14 04:26:02;;;;;;;11.85;9.70;;;;;;;-146.25;100.00;52566.91;2079712;28;38724;-66
2024/03/14 04:27:06;;;;;;;13.90;10.43;;;;;;;-146.25;100.00;52573.00;2080128;28;30684;-65
2024/03/14 04:28:10;;;;;;;12.60;9.75;;;;;;;-146.25;100.00;52589.22;2079859;28;31733;-65
2024/03/14 04:29:12;;;;;;;12.57;9.60;;;;;;;-146.25;100.00;52583.13;2071266;28;34849;-64
2024/03/14 04:30:17;;;;;;;13.05;10.25;;;;;;;-146.25;100.00;52579.06;2071423;28;33203;-65
2024/03/14 04:31:19;;;;;;;12.52;9.90;;;;;;;-146.25;100.00;52568.94;2080257;28;35183;-65
2024/03/14 04:32:23;;;;;;;12.43;10.00;;;;;;;-146.25;100.00;52607.47;2080399;28;37109;-65
2024/03/14 04:33:24;;;;;;;11.65;9.63;;;;;;;-146.25;100.00;52601.38;2071325;28;33149;-65
2024/03/14 04:34:28;;;;;;;13.40;10.02;;;;;;;-146.25;100.00;52619.63;2071468;28;33735;-66
2024/03/14 04:35:31;;;;;;;13.30;10.18;;;;;;;-146.25;100.00;52613.53;2080076;28;20053;-65
2024/03/14 04:36:33;;;;;;;12.90;10.52;;;;;;;-146.25;100.00;52566.91;2080313;28;20046;-66
2024/03/14 04:37:36;;;;;;;12.50;9.70;;;;;;;-146.25;100.00;52579.06;2079921;28;35949;-66
2024/03/14 04:38:38;;;;;;;12.98;9.65;;;;;;;-146.25;100.00;52587.19;2079748;28;30384;-65
2024/03/14 04:39:43;;;;;;;13.48;9.68;;;;;;;-146.25;100.00;52573.00;2080318;28;20083;-65
2024/03/14 04:40:45;;;;;;;12.57;9.23;;;;;;;-146.25;100.00;52552.72;2079611;28;35074;-66
2024/03/14 04:41:46;;;;;;;13.40;9.70;;;;;;;-146.25;100.00;52603.41;2079978;28;38905;-65